createdAt,value
2022-10-10T00:01:25.923Z,18.98
2022-10-10T00:03:53.557Z,18.89
2022-10-10T00:06:21.441Z,18.87
2022-10-10T00:08:48.792Z,18.89
2022-10-10T00:11:17.820Z,18.99
2022-10-10T00:13:44.632Z,19.06
2022-10-10T00:16:12.026Z,19.11
2022-10-10T00:18:39.955Z,19.03
2022-10-10T00:21:07.487Z,19.09
2022-10-10T00:23:34.944Z,19.06
2022-10-10T00:26:06.865Z,19.04
2022-10-10T00:28:38.684Z,18.97
2022-10-10T00:31:09.692Z,18.92
2022-10-10T00:33:37.797Z,18.91
2022-10-10T00:36:05.537Z,18.79
2022-10-10T00:38:32.843Z,18.84
2022-10-10T00:40:59.820Z,18.90
2022-10-10T00:43:27.715Z,18.97
2022-10-10T00:45:54.977Z,18.99
2022-10-10T00:48:29.111Z,18.96
2022-10-10T00:50:58.843Z,19.00
2022-10-10T00:53:30.579Z,18.51
2022-10-10T00:55:57.530Z,18.92
2022-10-10T00:58:24.765Z,18.88
2022-10-10T01:00:52.873Z,18.68
2022-10-10T01:03:20.569Z,18.74
2022-10-10T01:05:48.677Z,18.39
2022-10-10T01:08:17.636Z,18.70
2022-10-10T01:11:05.631Z,18.65
2022-10-10T01:14:22.404Z,18.54
2022-10-10T01:17:01.434Z,18.41
2022-10-10T01:19:38.731Z,18.35
2022-10-10T01:22:14.576Z,18.45
2022-10-10T01:25:09.138Z,18.42
2022-10-10T01:27:43.028Z,18.43
2022-10-10T01:30:17.937Z,18.41
2022-10-10T01:32:50.563Z,18.43
2022-10-10T01:35:32.044Z,18.38
2022-10-10T01:38:13.719Z,18.41
2022-10-10T01:40:46.761Z,18.50
2022-10-10T01:43:13.997Z,18.55
2022-10-10T01:45:48.804Z,18.52
2022-10-10T01:48:23.520Z,18.64
2022-10-10T01:51:24.502Z,18.77
2022-10-10T01:54:00.384Z,18.76
2022-10-10T01:56:36.157Z,18.65
2022-10-10T01:59:11.920Z,18.65
2022-10-10T02:01:53.950Z,18.53
2022-10-10T02:04:32.891Z,18.32
2022-10-10T02:07:11.286Z,18.38
2022-10-10T02:09:42.075Z,18.43
2022-10-10T02:12:12.711Z,18.44
2022-10-10T02:14:46.393Z,18.09
2022-10-10T02:17:15.620Z,18.41
2022-10-10T02:19:46.783Z,18.47
2022-10-10T02:22:14.234Z,18.44
2022-10-10T02:24:41.526Z,18.29
2022-10-10T02:27:32.820Z,18.38
2022-10-10T02:30:02.858Z,18.30
2022-10-10T02:32:42.133Z,18.24
2022-10-10T02:35:13.280Z,18.46
2022-10-10T02:37:43.823Z,18.50
2022-10-10T02:40:14.358Z,18.40
2022-10-10T02:42:41.953Z,18.64
2022-10-10T02:45:09.422Z,18.76
2022-10-10T02:47:36.170Z,18.77
2022-10-10T02:50:03.321Z,18.38
2022-10-10T02:52:30.160Z,18.70
2022-10-10T02:54:56.890Z,18.68
2022-10-10T02:57:23.618Z,18.64
2022-10-10T02:59:50.397Z,18.50
2022-10-10T03:02:17.161Z,18.48
2022-10-10T03:04:44.936Z,18.44
2022-10-10T03:07:11.870Z,18.33
2022-10-10T03:09:38.565Z,18.11
2022-10-10T03:12:05.691Z,17.96
2022-10-10T03:14:34.660Z,17.81
2022-10-10T03:17:01.638Z,17.37
2022-10-10T03:19:28.317Z,17.22
2022-10-10T03:21:55.185Z,17.06
2022-10-10T03:24:21.914Z,16.95
2022-10-10T03:26:48.605Z,16.85
2022-10-10T03:29:15.511Z,16.96
2022-10-10T03:31:42.229Z,16.91
2022-10-10T03:34:09.007Z,16.79
2022-10-10T03:36:35.821Z,16.72
2022-10-10T03:39:02.621Z,16.58
2022-10-10T03:41:29.393Z,16.58
2022-10-10T03:43:57.106Z,16.65
2022-10-10T03:46:23.791Z,16.72
2022-10-10T03:48:50.602Z,16.75
2022-10-10T03:51:17.390Z,16.77
2022-10-10T03:53:44.208Z,16.77
2022-10-10T03:56:10.965Z,16.79
2022-10-10T03:58:37.789Z,16.90
2022-10-10T04:01:05.575Z,17.04
2022-10-10T04:03:32.445Z,16.84
2022-10-10T04:05:59.428Z,17.05
2022-10-10T04:08:26.646Z,17.11
2022-10-10T04:10:54.751Z,17.12
2022-10-10T04:13:23.009Z,16.88
2022-10-10T04:15:51.657Z,16.99
2022-10-10T04:18:19.101Z,16.89
2022-10-10T04:20:45.941Z,16.97
2022-10-10T04:23:12.733Z,17.13
2022-10-10T04:25:39.593Z,17.33
2022-10-10T04:28:06.529Z,17.34
2022-10-10T04:30:34.789Z,17.29
2022-10-10T04:33:02.608Z,17.21
2022-10-10T04:35:29.428Z,17.22
2022-10-10T04:37:56.136Z,17.12
2022-10-10T04:40:26.465Z,17.05
2022-10-10T04:42:54.921Z,16.84
2022-10-10T04:45:21.843Z,16.65
2022-10-10T04:47:48.641Z,16.42
2022-10-10T04:50:15.569Z,16.34
2022-10-10T04:52:42.311Z,16.51
2022-10-10T04:55:09.140Z,16.49
2022-10-10T04:57:36.036Z,16.35
2022-10-10T05:00:04.831Z,16.67
2022-10-10T05:02:31.589Z,16.76
2022-10-10T05:04:58.436Z,16.94
2022-10-10T05:07:25.216Z,16.73
2022-10-10T05:09:51.901Z,16.62
2022-10-10T05:12:18.936Z,16.67
2022-10-10T05:14:48.079Z,16.75
2022-10-10T05:17:15.454Z,16.97
2022-10-10T05:19:42.857Z,16.90
2022-10-10T05:22:09.673Z,16.79
2022-10-10T05:24:36.424Z,16.85
2022-10-10T05:27:03.310Z,16.75
2022-10-10T05:29:30.028Z,16.55
2022-10-10T05:31:56.817Z,16.50
2022-10-10T05:34:24.089Z,16.25
2022-10-10T05:36:50.942Z,16.02
2022-10-10T05:39:17.791Z,15.94
2022-10-10T05:41:44.702Z,15.73
2022-10-10T05:44:11.862Z,15.81
2022-10-10T05:46:38.539Z,15.78
2022-10-10T05:49:05.472Z,15.67
2022-10-10T05:51:32.347Z,15.73
2022-10-10T05:53:59.292Z,15.79
2022-10-10T05:56:26.165Z,15.71
2022-10-10T05:58:52.922Z,15.82
2022-10-10T06:01:19.696Z,15.93
2022-10-10T06:03:52.801Z,16.00
2022-10-10T06:06:19.759Z,15.98
2022-10-10T06:08:46.495Z,16.02
2022-10-10T06:11:13.340Z,15.92
2022-10-10T06:13:40.040Z,15.99
2022-10-10T06:16:07.184Z,15.94
2022-10-10T06:18:34.238Z,16.00
2022-10-10T06:21:06.012Z,15.97
2022-10-10T06:23:33.438Z,15.88
2022-10-10T06:26:00.463Z,16.07
2022-10-10T06:28:27.221Z,15.94
2022-10-10T06:30:54.046Z,16.09
2022-10-10T06:33:20.960Z,16.04
2022-10-10T06:35:49.197Z,15.76
2022-10-10T06:38:17.146Z,16.20
2022-10-10T06:40:44.472Z,16.16
2022-10-10T06:43:13.262Z,16.21
2022-10-10T06:45:42.588Z,16.35
2022-10-10T06:48:10.079Z,16.34
2022-10-10T06:50:37.523Z,16.24
2022-10-10T06:53:05.366Z,16.63
2022-10-10T06:55:32.432Z,16.21
2022-10-10T06:57:59.175Z,16.48
2022-10-10T07:00:26.016Z,16.32
2022-10-10T07:02:53.335Z,16.49
2022-10-10T07:05:20.409Z,16.57
2022-10-10T07:07:47.228Z,16.40
2022-10-10T07:10:16.084Z,16.53
2022-10-10T07:12:52.332Z,16.68
2022-10-10T07:15:19.306Z,16.66
2022-10-10T07:17:50.501Z,16.98
2022-10-10T07:20:20.396Z,16.83
2022-10-10T07:22:47.083Z,17.11
2022-10-10T07:25:13.945Z,16.99
2022-10-10T07:27:40.730Z,17.17
2022-10-10T07:30:07.942Z,17.08
2022-10-10T07:32:34.833Z,17.19
2022-10-10T07:35:01.813Z,17.28
2022-10-10T07:37:28.556Z,17.51
2022-10-10T07:39:55.338Z,17.40
2022-10-10T07:42:22.153Z,17.35
2022-10-10T07:44:48.873Z,17.64
2022-10-10T07:47:15.670Z,17.74
2022-10-10T07:49:42.457Z,18.57
2022-10-10T07:52:09.316Z,18.33
2022-10-10T07:54:36.072Z,18.35
2022-10-10T07:57:02.922Z,18.29
2022-10-10T07:59:29.812Z,18.19
2022-10-10T08:01:56.815Z,18.16
2022-10-10T08:04:24.087Z,18.42
2022-10-10T08:06:50.827Z,18.31
2022-10-10T08:09:17.561Z,18.58
2022-10-10T08:11:44.468Z,18.64
2022-10-10T08:14:11.212Z,18.94
2022-10-10T08:16:38.132Z,19.00
2022-10-10T08:19:05.128Z,18.97
2022-10-10T08:21:32.532Z,19.17
2022-10-10T08:23:59.632Z,19.17
2022-10-10T08:26:26.460Z,19.33
2022-10-10T08:28:53.274Z,19.59
2022-10-10T08:31:22.337Z,19.64
2022-10-10T08:33:50.877Z,19.64
2022-10-10T08:36:24.809Z,19.40
2022-10-10T08:38:57.302Z,19.46
2022-10-10T08:41:29.691Z,19.62
2022-10-10T08:44:05.150Z,19.59
2022-10-10T08:47:06.217Z,19.52
2022-10-10T08:49:46.814Z,19.65
2022-10-10T08:52:19.548Z,19.96
2022-10-10T08:54:48.985Z,20.06
2022-10-10T08:57:27.277Z,19.74
2022-10-10T09:00:02.205Z,19.58
2022-10-10T09:03:01.059Z,19.34
2022-10-10T09:05:52.728Z,18.95
2022-10-10T09:08:37.896Z,18.72
2022-10-10T09:11:34.676Z,18.73
2022-10-10T09:14:31.624Z,18.50
2022-10-10T09:17:18.741Z,18.51
2022-10-10T09:20:15.834Z,18.20
2022-10-10T09:23:25.616Z,18.24
2022-10-10T09:26:06.425Z,18.19
2022-10-10T09:28:58.821Z,17.98
2022-10-10T09:31:44.088Z,18.12
2022-10-10T09:34:49.190Z,18.12
2022-10-10T09:37:45.671Z,18.23
2022-10-10T09:40:34.902Z,18.01
2022-10-10T09:43:21.141Z,17.84
2022-10-10T09:45:53.056Z,17.95
2022-10-10T09:48:26.180Z,17.94
2022-10-10T09:50:53.032Z,17.93
2022-10-10T09:53:21.017Z,17.92
2022-10-10T09:55:50.113Z,18.17
2022-10-10T09:58:29.153Z,17.99
2022-10-10T10:01:23.426Z,17.92
2022-10-10T10:04:26.912Z,18.01
2022-10-10T10:07:17.467Z,18.03
2022-10-10T10:09:51.634Z,17.84
2022-10-10T10:12:24.976Z,18.07
2022-10-10T10:14:58.843Z,18.13
2022-10-10T10:17:25.796Z,17.94
2022-10-10T10:19:52.889Z,17.98
2022-10-10T10:22:35.429Z,18.17
2022-10-10T10:25:30.631Z,18.16
2022-10-10T10:28:13.110Z,18.21
2022-10-10T10:30:41.165Z,18.15
2022-10-10T10:33:26.069Z,18.38
2022-10-10T10:36:51.547Z,18.45
2022-10-10T10:39:55.797Z,18.53
2022-10-10T10:42:22.492Z,18.73
2022-10-10T10:45:16.975Z,18.65
2022-10-10T10:48:24.547Z,18.66
2022-10-10T10:51:00.086Z,18.61
2022-10-10T10:53:50.908Z,18.63
2022-10-10T10:57:06.473Z,18.54
2022-10-10T11:00:20.941Z,18.80
2022-10-10T11:03:21.124Z,18.81
2022-10-10T11:06:03.848Z,18.63
2022-10-10T11:08:33.877Z,18.73
2022-10-10T11:11:26.656Z,18.64
2022-10-10T11:14:21.765Z,18.68
2022-10-10T11:17:11.733Z,18.73
2022-10-10T11:19:56.812Z,18.82
2022-10-10T11:22:34.394Z,18.94
2022-10-10T11:25:24.019Z,19.05
2022-10-10T11:28:20.993Z,19.03
2022-10-10T11:30:57.357Z,19.12
2022-10-10T11:33:30.902Z,19.22
2022-10-10T11:36:06.378Z,19.20
2022-10-10T11:38:45.157Z,19.17
2022-10-10T11:41:33.336Z,19.14
2022-10-10T11:44:14.845Z,18.91
2022-10-10T11:47:06.290Z,19.09
2022-10-10T11:50:01.966Z,19.07
2022-10-10T11:52:39.964Z,19.11
2022-10-10T11:55:13.220Z,19.11
2022-10-10T11:58:06.133Z,19.10
2022-10-10T12:00:51.928Z,18.96
2022-10-10T12:03:18.881Z,19.16
2022-10-10T12:05:54.142Z,19.29
2022-10-10T12:08:35.539Z,19.50
2022-10-10T12:11:22.893Z,19.61
2022-10-10T12:13:55.469Z,19.60
2022-10-10T12:16:30.404Z,19.63
2022-10-10T12:19:22.069Z,19.87
2022-10-10T12:22:01.118Z,19.95
2022-10-10T12:24:40.912Z,20.12
2022-10-10T12:27:25.392Z,20.23
2022-10-10T12:29:58.123Z,20.27
2022-10-10T12:32:39.933Z,20.28
2022-10-10T12:35:28.692Z,20.27
2022-10-10T12:38:19.138Z,20.27
2022-10-10T12:40:58.421Z,20.22
2022-10-10T12:44:12.442Z,20.31
2022-10-10T12:46:39.414Z,20.42
2022-10-10T12:49:18.196Z,20.57
2022-10-10T12:51:59.454Z,20.65
2022-10-10T12:54:31.986Z,20.35
2022-10-10T12:57:09.395Z,20.41
2022-10-10T12:59:37.783Z,20.31
2022-10-10T13:02:13.104Z,20.41
2022-10-10T13:04:46.414Z,20.34
2022-10-10T13:07:18.041Z,20.37
2022-10-10T13:09:47.872Z,20.36
2022-10-10T13:12:23.892Z,20.26
2022-10-10T13:14:50.669Z,20.20
2022-10-10T13:17:29.412Z,20.21
2022-10-10T13:20:01.032Z,20.21
2022-10-10T13:22:30.291Z,20.25
2022-10-10T13:24:58.268Z,20.17
2022-10-10T13:27:28.428Z,20.14
2022-10-10T13:29:56.031Z,20.25
2022-10-10T13:32:29.596Z,20.33
2022-10-10T13:35:07.537Z,20.31
2022-10-10T13:37:34.582Z,20.36
2022-10-10T13:40:01.720Z,20.78
2022-10-10T13:42:37.677Z,20.96
2022-10-10T13:45:27.886Z,21.24
2022-10-10T13:48:03.218Z,21.33
2022-10-10T13:50:29.960Z,21.37
2022-10-10T13:53:27.770Z,21.33
2022-10-10T13:56:16.209Z,21.21
2022-10-10T13:58:45.838Z,21.12
2022-10-10T14:01:43.983Z,21.03
2022-10-10T14:04:13.645Z,21.11
2022-10-10T14:07:09.019Z,21.12
2022-10-10T14:09:53.403Z,21.06
2022-10-10T14:12:32.165Z,21.20
2022-10-10T14:15:00.944Z,21.25
2022-10-10T14:17:29.104Z,21.19
2022-10-10T14:19:56.760Z,21.18
2022-10-10T14:22:23.775Z,21.20
2022-10-10T14:24:50.717Z,21.19
2022-10-10T14:27:20.490Z,21.36
2022-10-10T14:29:47.481Z,21.23
2022-10-10T14:32:15.617Z,21.49
2022-10-10T14:34:42.775Z,21.55
2022-10-10T14:37:18.944Z,21.58
2022-10-10T14:39:46.751Z,21.15
2022-10-10T14:42:15.819Z,21.62
2022-10-10T14:44:42.812Z,21.79
2022-10-10T14:47:16.161Z,21.86
2022-10-10T14:49:43.314Z,21.89
2022-10-10T14:52:10.362Z,21.93
2022-10-10T14:54:37.104Z,21.84
2022-10-10T14:57:09.549Z,21.71
2022-10-10T14:59:46.169Z,21.71
2022-10-10T15:02:20.588Z,21.84
2022-10-10T15:04:47.666Z,21.69
2022-10-10T15:07:15.514Z,21.48
2022-10-10T15:12:36.802Z,21.46
2022-10-10T15:15:04.684Z,21.29
2022-10-10T15:17:34.691Z,21.34
2022-10-10T15:20:03.000Z,21.25
2022-10-10T15:22:30.886Z,21.34
2022-10-10T15:24:57.879Z,21.09
2022-10-10T15:27:25.635Z,21.10
2022-10-10T15:29:52.439Z,21.11
2022-10-10T15:32:19.286Z,21.10
2022-10-10T15:34:50.088Z,21.08
2022-10-10T15:37:17.535Z,21.07
2022-10-10T15:39:48.128Z,21.14
2022-10-10T15:42:21.526Z,21.14
2022-10-10T15:44:50.231Z,21.13
2022-10-10T15:47:18.616Z,21.06
2022-10-10T15:49:45.392Z,20.93
2022-10-10T15:52:12.321Z,21.10
2022-10-10T15:54:39.225Z,20.68
2022-10-10T15:57:06.000Z,21.14
2022-10-10T15:59:33.202Z,21.13
2022-10-10T16:02:01.015Z,21.12
2022-10-10T16:04:27.775Z,21.09
2022-10-10T16:07:19.277Z,21.23
2022-10-10T16:09:41.396Z,21.29
2022-10-10T16:12:08.331Z,21.15
2022-10-10T16:14:35.173Z,21.22
2022-10-10T16:17:01.988Z,21.24
2022-10-10T16:19:28.978Z,21.33
2022-10-10T16:21:55.999Z,21.17
2022-10-10T16:24:22.759Z,21.33
2022-10-10T16:26:49.534Z,21.30
2022-10-10T16:29:18.732Z,21.22
2022-10-10T16:31:45.975Z,21.24
2022-10-10T16:34:15.338Z,20.93
2022-10-10T16:36:43.203Z,21.20
2022-10-10T16:39:09.930Z,21.17
2022-10-10T16:41:52.441Z,21.14
2022-10-10T16:44:19.344Z,21.10
2022-10-10T16:46:46.303Z,21.12
2022-10-10T16:49:16.441Z,21.17
2022-10-10T16:51:43.413Z,20.97
2022-10-10T16:54:10.301Z,21.13
2022-10-10T16:56:37.156Z,21.21
2022-10-10T16:59:04.416Z,21.21
2022-10-10T17:01:31.692Z,21.15
2022-10-10T17:03:59.777Z,21.18
2022-10-10T17:06:32.590Z,21.11
2022-10-10T17:09:02.945Z,20.99
2022-10-10T17:11:29.841Z,21.01
2022-10-10T17:13:56.584Z,21.07
2022-10-10T17:19:13.299Z,20.94
2022-10-10T17:21:40.546Z,20.91
2022-10-10T17:24:07.447Z,20.90
2022-10-10T17:26:34.223Z,20.81
2022-10-10T17:29:01.163Z,20.71
2022-10-10T17:31:28.124Z,20.45
2022-10-10T17:33:58.257Z,20.47
2022-10-10T17:36:27.136Z,20.50
2022-10-10T17:39:00.468Z,20.49
2022-10-10T17:41:28.374Z,20.28
2022-10-10T17:43:55.353Z,20.41
2022-10-10T17:46:41.825Z,20.39
2022-10-10T17:49:11.085Z,20.31
2022-10-10T17:51:39.350Z,20.32
2022-10-10T17:54:07.143Z,20.28
2022-10-10T17:56:34.609Z,20.24
2022-10-10T17:59:02.051Z,20.10
2022-10-10T18:01:30.947Z,20.21
2022-10-10T18:03:58.553Z,20.01
2022-10-10T18:06:25.582Z,20.13
2022-10-10T18:08:53.787Z,19.97
2022-10-10T18:11:25.855Z,20.06
2022-10-10T18:13:52.754Z,20.08
2022-10-10T18:16:23.292Z,19.80
2022-10-10T18:18:52.199Z,20.05
2022-10-10T18:21:21.321Z,19.86
2022-10-10T18:23:48.645Z,19.84
2022-10-10T18:26:20.575Z,19.93
2022-10-10T18:28:48.338Z,19.93
2022-10-10T18:31:18.205Z,19.88
2022-10-10T18:33:45.578Z,19.84
2022-10-10T18:36:15.470Z,19.85
2022-10-10T18:38:42.180Z,19.81
2022-10-10T18:41:17.498Z,19.72
2022-10-10T18:43:45.210Z,19.78
2022-10-10T18:46:17.308Z,19.78
2022-10-10T18:48:47.173Z,19.78
2022-10-10T18:51:24.340Z,19.74
2022-10-10T18:53:53.377Z,19.77
2022-10-10T18:56:24.670Z,19.74
2022-10-10T18:58:56.377Z,19.62
2022-10-10T19:01:25.565Z,19.79
2022-10-10T19:03:53.984Z,19.74
2022-10-10T19:06:23.233Z,19.77
2022-10-10T19:08:51.709Z,19.76
2022-10-10T19:11:24.436Z,19.72
2022-10-10T19:13:51.808Z,19.61
2022-10-10T19:16:18.791Z,19.73
2022-10-10T19:18:45.924Z,19.70
2022-10-10T19:21:13.339Z,19.75
2022-10-10T19:23:40.389Z,19.76
2022-10-10T19:26:09.890Z,19.71
2022-10-10T19:28:37.817Z,19.65
2022-10-10T19:31:09.624Z,19.80
2022-10-10T19:33:37.292Z,19.86
2022-10-10T19:36:06.080Z,19.61
2022-10-10T19:38:38.889Z,19.83
2022-10-10T19:41:08.402Z,19.63
2022-10-10T19:43:35.347Z,19.83
2022-10-10T19:46:11.065Z,19.82
2022-10-10T19:48:37.861Z,19.83
2022-10-10T19:51:07.303Z,19.75
2022-10-10T19:53:36.123Z,19.86
2022-10-10T19:56:05.843Z,19.72
2022-10-10T19:58:33.585Z,19.77
2022-10-10T20:01:00.728Z,19.79
2022-10-10T20:03:27.440Z,19.86
2022-10-10T20:06:00.706Z,19.85
2022-10-10T20:08:28.228Z,19.79
2022-10-10T20:10:55.042Z,19.86
2022-10-10T20:13:21.877Z,19.32
2022-10-10T20:15:49.577Z,19.77
2022-10-10T20:18:21.554Z,19.84
2022-10-10T20:20:51.372Z,19.81
2022-10-10T20:23:20.779Z,19.78
2022-10-10T20:25:47.932Z,19.80
2022-10-10T20:28:17.212Z,19.75
2022-10-10T20:30:49.839Z,19.72
2022-10-10T20:33:18.467Z,19.69
2022-10-10T20:35:46.938Z,19.60
2022-10-10T20:38:14.392Z,19.50
2022-10-10T20:40:44.988Z,19.49
2022-10-10T20:43:12.501Z,19.55
2022-10-10T20:45:40.780Z,19.53
2022-10-10T20:48:08.739Z,19.51
2022-10-10T20:50:37.168Z,19.52
2022-10-10T20:53:04.625Z,19.55
2022-10-10T20:55:31.524Z,19.48
2022-10-10T20:57:58.251Z,19.58
2022-10-10T21:00:25.316Z,19.57
2022-10-10T21:02:53.025Z,19.36
2022-10-10T21:05:19.839Z,19.10
2022-10-10T21:07:46.729Z,19.32
2022-10-10T21:10:13.494Z,19.16
2022-10-10T21:12:40.299Z,19.16
2022-10-10T21:15:07.505Z,19.04
2022-10-10T21:17:34.385Z,19.10
2022-10-10T21:20:01.316Z,19.21
2022-10-10T21:22:28.506Z,19.21
2022-10-10T21:24:55.270Z,19.09
2022-10-10T21:27:22.005Z,19.22
2022-10-10T21:29:48.756Z,19.14
2022-10-10T21:32:15.702Z,19.23
2022-10-10T21:34:42.449Z,19.15
2022-10-10T21:37:09.293Z,19.26
2022-10-10T21:39:36.055Z,19.32
2022-10-10T21:42:02.810Z,19.24
2022-10-10T21:44:29.810Z,19.31
2022-10-10T21:46:56.595Z,19.28
2022-10-10T21:49:23.316Z,19.24
2022-10-10T21:51:50.384Z,19.18
2022-10-10T21:54:17.194Z,19.25
2022-10-10T21:56:44.361Z,19.18
2022-10-10T21:59:11.596Z,19.15
2022-10-10T22:01:38.474Z,19.24
2022-10-10T22:04:05.917Z,19.21
2022-10-10T22:06:32.933Z,19.18
2022-10-10T22:09:01.060Z,19.16
2022-10-10T22:11:30.024Z,19.14
2022-10-10T22:13:56.963Z,19.08
2022-10-10T22:16:24.157Z,19.08
2022-10-10T22:18:57.996Z,18.90
2022-10-10T22:21:30.294Z,18.89
2022-10-10T22:23:59.514Z,18.84
2022-10-10T22:26:26.356Z,18.87
2022-10-10T22:28:53.372Z,18.86
2022-10-10T22:31:20.329Z,18.76
2022-10-10T22:33:47.083Z,18.93
2022-10-10T22:36:13.906Z,18.91
2022-10-10T22:38:43.548Z,18.93
2022-10-10T22:41:12.122Z,18.93
2022-10-10T22:43:38.961Z,18.84
2022-10-10T22:46:06.448Z,18.92
2022-10-10T22:48:33.883Z,19.01
2022-10-10T22:51:16.376Z,18.99
2022-10-10T22:53:44.453Z,18.89
2022-10-10T22:56:13.676Z,18.86
2022-10-10T22:58:40.619Z,18.94
2022-10-10T23:01:11.373Z,18.98
2022-10-10T23:03:41.114Z,18.97
2022-10-10T23:06:08.963Z,18.96
2022-10-10T23:08:36.533Z,18.91
2022-10-10T23:11:03.953Z,19.03
2022-10-10T23:13:31.097Z,18.68
2022-10-10T23:15:58.138Z,18.96
2022-10-10T23:18:25.781Z,18.98
2022-10-10T23:20:52.646Z,19.12
2022-10-10T23:23:19.495Z,19.16
2022-10-10T23:25:47.705Z,19.15
2022-10-10T23:28:16.195Z,19.19
2022-10-10T23:30:45.215Z,19.14
2022-10-10T23:33:12.370Z,19.12
2022-10-10T23:35:39.491Z,19.06
2022-10-10T23:38:06.653Z,19.12
2022-10-10T23:40:34.131Z,19.05
2022-10-10T23:43:01.108Z,19.00
2022-10-10T23:45:27.877Z,19.01
2022-10-10T23:47:54.783Z,19.00
2022-10-10T23:50:21.611Z,18.99
2022-10-10T23:52:48.296Z,18.92
2022-10-10T23:55:15.090Z,18.91
2022-10-10T23:57:41.915Z,18.92
